Time;durP1;ratioP1;P1;durP2;ratioP2;P2;SDS_P1;SDS_P2;PMS_P1;PMS_P2;Temp;Humidity;BMP_temperature;BMP_pressure;BME280_temperature;BME280_humidity;BME280_pressure;Samples;Min_cycle;Max_cycle;Signal;HPM_P1;HPM_P2
2021/01/07 00:02:00;;;;;;;;;;;1.90;99.90;;;;;;5091760;28;19932;-76
2021/01/07 00:04:26;;;;;;;;;;;1.90;99.90;;;;;;5092289;28;20483;-76
2021/01/07 00:06:52;;;;;;;;;;;1.90;99.90;;;;;;5093133;28;19932;-76
2021/01/07 00:09:18;;;;;;;;;;;1.90;99.90;;;;;;5096201;28;19924;-74
2021/01/07 00:11:45;;;;;;;;;;;2.00;99.90;;;;;;5095328;28;19924;-74
2021/01/07 00:14:11;;;;;;;;;;;2.00;99.90;;;;;;5095829;28;20399;-74
2021/01/07 00:16:37;;;;;;;;;;;2.00;99.90;;;;;;5095810;28;19924;-74
2021/01/07 00:19:03;;;;;;;;;;;1.90;99.90;;;;;;5095854;28;19925;-74
2021/01/07 00:21:29;;;;;;;;;;;1.90;99.90;;;;;;5077235;28;20434;-74
2021/01/07 00:23:55;;;;;;;;;;;2.00;99.90;;;;;;5075467;28;19928;-74
2021/01/07 00:26:21;;;;;;;;;;;2.00;99.90;;;;;;5075731;28;20377;-75
2021/01/07 00:28:48;;;;;;;;;;;1.90;99.90;;;;;;5075239;28;19970;-74
2021/01/07 00:31:14;;;;;;;;;;;1.90;99.90;;;;;;5074809;28;20459;-74
2021/01/07 00:33:40;;;;;;;;;;;1.80;99.90;;;;;;5086606;28;19928;-74
2021/01/07 00:36:06;;;;;;;;;;;1.90;99.90;;;;;;5095488;28;19966;-75
2021/01/07 00:38:32;;;;;;;;;;;1.80;99.90;;;;;;5095583;28;19970;-75
2021/01/07 00:40:58;;;;;;;;;;;1.80;99.90;;;;;;5095095;28;19987;-75
2021/01/07 00:43:24;;;;;;;;;;;1.80;99.90;;;;;;5095150;28;19924;-75
2021/01/07 00:45:52;;;;;;;;;;;1.80;99.90;;;;;;5095258;28;19924;-75
2021/01/07 00:48:18;;;;;;;;;;;1.90;99.90;;;;;;5094687;28;19924;-75
2021/01/07 00:50:44;;;;;;;;;;;1.80;99.90;;;;;;5094741;28;20343;-75
2021/01/07 00:53:10;;;;;;;;;;;1.70;99.90;;;;;;5095361;28;19928;-75
2021/01/07 00:55:36;;;;;;;;;;;1.80;99.90;;;;;;5094953;28;19932;-75
2021/01/07 00:58:02;;;;;;;;;;;1.80;99.90;;;;;;5095345;28;19924;-75
2021/01/07 01:00:28;;;;;;;;;;;1.80;99.90;;;;;;5093967;28;20335;-75
2021/01/07 01:02:55;;;;;;;;;;;1.80;99.90;;;;;;5095016;28;19924;-75
2021/01/07 01:05:21;;;;;;;;;;;1.80;99.90;;;;;;5095081;28;19928;-74
2021/01/07 01:07:47;;;;;;;;;;;1.80;99.90;;;;;;5095065;28;20416;-75
2021/01/07 01:10:13;;;;;;;;;;;1.90;99.90;;;;;;5086996;28;19978;-74
2021/01/07 01:12:39;;;;;;;;;;;1.80;99.90;;;;;;5074485;28;19924;-75
2021/01/07 01:15:07;;;;;;;;;;;1.90;99.90;;;;;;5080729;28;19924;-75
2021/01/07 01:17:33;;;;;;;;;;;1.80;99.90;;;;;;5094883;28;19924;-75
2021/01/07 01:20:00;;;;;;;;;;;1.80;99.90;;;;;;5093624;28;19928;-75
2021/01/07 01:22:30;;;;;;;;;;;1.70;99.90;;;;;;5094511;28;19970;-75
2021/01/07 01:24:57;;;;;;;;;;;1.70;99.90;;;;;;5094473;28;19978;-75
2021/01/07 01:27:23;;;;;;;;;;;1.70;99.90;;;;;;5094551;28;19924;-75
2021/01/07 01:29:49;;;;;;;;;;;1.70;99.90;;;;;;5093800;28;19928;-75
2021/01/07 01:32:15;;;;;;;;;;;1.70;99.90;;;;;;5094352;28;19953;-75
2021/01/07 01:34:41;;;;;;;;;;;1.70;99.90;;;;;;5094423;28;19935;-75
2021/01/07 01:37:08;;;;;;;;;;;1.70;99.90;;;;;;5093649;28;20396;-75
2021/01/07 01:39:34;;;;;;;;;;;1.80;99.90;;;;;;5074048;28;19924;-75
2021/01/07 01:42:00;;;;;;;;;;;1.70;99.90;;;;;;5073590;28;19924;-75
2021/01/07 01:44:26;;;;;;;;;;;1.70;99.90;;;;;;5074113;28;19924;-75
2021/01/07 01:46:52;;;;;;;;;;;1.80;99.90;;;;;;5074684;28;19981;-75
2021/01/07 01:49:19;;;;;;;;;;;1.70;99.90;;;;;;5094111;28;20369;-75
2021/01/07 01:51:45;;;;;;;;;;;1.70;99.90;;;;;;5093659;28;19924;-75
2021/01/07 01:54:12;;;;;;;;;;;1.70;99.90;;;;;;5093971;28;19976;-75
2021/01/07 01:56:39;;;;;;;;;;;1.70;99.90;;;;;;5093155;28;19924;-75
2021/01/07 01:59:05;;;;;;;;;;;1.70;99.90;;;;;;5094060;28;19947;-75
2021/01/07 02:01:31;;;;;;;;;;;1.70;99.90;;;;;;5093371;28;20407;-74
2021/01/07 02:03:57;;;;;;;;;;;1.70;99.90;;;;;;5093759;28;19928;-75
2021/01/07 02:06:27;;;;;;;;;;;1.70;99.90;;;;;;5093292;28;19931;-74
2021/01/07 02:08:53;;;;;;;;;;;1.70;99.90;;;;;;5093893;28;20018;-75
2021/01/07 02:11:19;;;;;;;;;;;1.70;99.90;;;;;;5093449;28;19924;-74
2021/01/07 02:13:46;;;;;;;;;;;1.70;99.90;;;;;;5093662;28;19924;-74
2021/01/07 02:16:18;;;;;;;;;;;1.70;99.90;;;;;;5093605;28;19925;-75
2021/01/07 02:18:44;;;;;;;;;;;1.70;99.90;;;;;;5092289;28;20368;-75
2021/01/07 02:21:11;;;;;;;;;;;1.70;99.90;;;;;;5093265;28;19969;-75
2021/01/07 02:23:45;;;;;;;;;;;1.70;99.90;;;;;;5093507;28;19931;-75
2021/01/07 02:26:11;;;;;;;;;;;1.60;99.90;;;;;;5093634;28;19928;-75
2021/01/07 02:28:37;;;;;;;;;;;1.60;99.90;;;;;;5093715;28;19924;-75
2021/01/07 02:31:03;;;;;;;;;;;1.60;99.90;;;;;;5092994;28;19931;-75
2021/01/07 02:33:29;;;;;;;;;;;1.60;99.90;;;;;;5091239;28;20396;-75
2021/01/07 02:35:55;;;;;;;;;;;1.60;99.90;;;;;;5093410;28;19928;-75
2021/01/07 02:38:22;;;;;;;;;;;1.60;99.90;;;;;;5093419;28;19934;-74
2021/01/07 02:40:48;;;;;;;;;;;1.60;99.90;;;;;;5093036;28;20308;-75
2021/01/07 02:43:14;;;;;;;;;;;1.60;99.90;;;;;;5093084;28;19924;-75
2021/01/07 02:45:40;;;;;;;;;;;1.60;99.90;;;;;;5093353;28;20274;-75
2021/01/07 02:48:06;;;;;;;;;;;1.60;99.90;;;;;;5087454;28;19931;-74
2021/01/07 02:50:32;;;;;;;;;;;1.60;99.90;;;;;;5072758;28;19978;-75
2021/01/07 02:52:58;;;;;;;;;;;1.70;99.90;;;;;;5090594;28;19928;-75
2021/01/07 02:55:24;;;;;;;;;;;1.60;99.90;;;;;;5092898;28;19924;-75
2021/01/07 02:57:50;;;;;;;;;;;1.50;99.90;;;;;;5093119;28;20425;-75
2021/01/07 03:00:17;;;;;;;;;;;1.60;99.90;;;;;;5092578;28;19924;-75
2021/01/07 03:02:44;;;;;;;;;;;1.60;99.90;;;;;;5091840;28;21237;-75
2021/01/07 03:05:10;;;;;;;;;;;1.60;99.90;;;;;;5092964;28;19924;-75
2021/01/07 03:07:36;;;;;;;;;;;1.50;99.90;;;;;;5092862;28;19983;-75
2021/01/07 03:10:04;;;;;;;;;;;1.50;99.90;;;;;;5092699;28;19924;-75
2021/01/07 03:12:31;;;;;;;;;;;1.60;99.90;;;;;;5092849;28;19924;-75
2021/01/07 03:14:57;;;;;;;;;;;1.60;99.90;;;;;;5092615;28;19931;-75
2021/01/07 03:17:23;;;;;;;;;;;1.60;99.90;;;;;;5092546;28;19925;-75
2021/01/07 03:19:49;;;;;;;;;;;1.60;99.90;;;;;;5092416;28;19976;-75
2021/01/07 03:22:15;;;;;;;;;;;1.60;99.90;;;;;;5092521;28;20388;-75
2021/01/07 03:24:41;;;;;;;;;;;1.60;99.90;;;;;;5092529;28;19924;-75
2021/01/07 03:27:07;;;;;;;;;;;1.60;99.90;;;;;;5092539;28;19930;-74
2021/01/07 03:29:33;;;;;;;;;;;1.60;99.90;;;;;;5092817;28;19925;-74
2021/01/07 03:32:00;;;;;;;;;;;1.60;99.90;;;;;;5091937;28;19928;-75
2021/01/07 03:34:26;;;;;;;;;;;1.50;99.90;;;;;;5092268;28;19931;-74
2021/01/07 03:36:52;;;;;;;;;;;1.50;99.90;;;;;;5092482;28;19928;-74
2021/01/07 03:39:18;;;;;;;;;;;1.50;99.90;;;;;;5092116;28;19924;-73
2021/01/07 03:41:44;;;;;;;;;;;1.50;99.90;;;;;;5093026;28;19931;-74
2021/01/07 03:44:10;;;;;;;;;;;1.50;99.90;;;;;;5096126;28;20346;-73
2021/01/07 03:46:37;;;;;;;;;;;1.50;99.90;;;;;;5092755;28;19929;-74
2021/01/07 03:49:04;;;;;;;;;;;1.50;99.90;;;;;;5076052;28;20393;-74
2021/01/07 03:51:30;;;;;;;;;;;1.50;99.90;;;;;;5075741;28;20297;-74
2021/01/07 03:53:56;;;;;;;;;;;1.50;99.90;;;;;;5076060;28;19924;-74
2021/01/07 03:56:22;;;;;;;;;;;1.50;99.90;;;;;;5075853;28;19997;-74
2021/01/07 03:58:47;;;;;;;;;;;1.50;99.90;;;;;;5075917;28;19925;-74
2021/01/07 04:01:13;;;;;;;;;;;1.50;99.90;;;;;;5075557;28;20384;-74
2021/01/07 04:03:40;;;;;;;;;;;1.50;99.90;;;;;;5075668;28;19924;-74
2021/01/07 04:06:06;;;;;;;;;;;1.50;99.90;;;;;;5075875;28;19925;-74
2021/01/07 04:08:32;;;;;;;;;;;1.40;99.90;;;;;;5075866;28;19948;-74
2021/01/07 04:10:58;;;;;;;;;;;1.40;99.90;;;;;;5075367;28;19925;-74
2021/01/07 04:13:24;;;;;;;;;;;1.50;99.90;;;;;;5075494;28;19925;-74
2021/01/07 04:15:50;;;;;;;;;;;1.50;99.90;;;;;;5091553;28;19928;-74
2021/01/07 04:18:16;;;;;;;;;;;1.50;99.90;;;;;;5095988;28;19939;-74
2021/01/07 04:20:43;;;;;;;;;;;1.50;99.90;;;;;;5095579;28;19924;-74
2021/01/07 04:23:09;;;;;;;;;;;1.50;99.90;;;;;;5095494;28;20377;-74
2021/01/07 04:25:35;;;;;;;;;;;1.50;99.90;;;;;;5096014;28;19973;-74
2021/01/07 04:28:01;;;;;;;;;;;1.50;99.90;;;;;;5088756;28;20546;-70
2021/01/07 04:30:27;;;;;;;;;;;1.40;99.90;;;;;;5074864;28;19932;-73
2021/01/07 04:32:54;;;;;;;;;;;1.50;99.90;;;;;;5086225;28;20392;-70
2021/01/07 04:35:20;;;;;;;;;;;1.40;99.90;;;;;;5095234;28;19928;-71
2021/01/07 04:37:46;;;;;;;;;;;1.40;99.90;;;;;;5095320;28;19924;-71
2021/01/07 04:40:13;;;;;;;;;;;1.50;99.90;;;;;;5094917;28;19925;-71
2021/01/07 04:42:39;;;;;;;;;;;1.50;99.90;;;;;;5083374;28;20224;-72
2021/01/07 04:45:05;;;;;;;;;;;1.60;99.90;;;;;;5075042;28;20373;-73
2021/01/07 04:47:31;;;;;;;;;;;1.60;99.90;;;;;;5075352;28;19929;-71
2021/01/07 04:49:58;;;;;;;;;;;1.70;99.90;;;;;;5074736;28;19925;-71
2021/01/07 04:52:24;;;;;;;;;;;1.60;99.90;;;;;;5074654;28;19925;-70
2021/01/07 04:54:51;;;;;;;;;;;1.70;99.90;;;;;;5073674;28;20404;-73
2021/01/07 04:57:17;;;;;;;;;;;1.60;99.90;;;;;;5074580;28;19924;-71
2021/01/07 04:59:43;;;;;;;;;;;1.60;99.90;;;;;;5074560;28;19947;-72
2021/01/07 05:02:10;;;;;;;;;;;1.60;99.90;;;;;;5074438;28;20376;-70
2021/01/07 05:04:46;;;;;;;;;;;1.50;99.90;;;;;;5074768;28;20069;-73
2021/01/07 05:07:12;;;;;;;;;;;1.50;99.90;;;;;;5075073;28;20308;-72
2021/01/07 05:09:38;;;;;;;;;;;1.50;99.90;;;;;;5079700;28;19930;-73
2021/01/07 05:12:05;;;;;;;;;;;1.50;99.90;;;;;;5094623;28;19924;-73
2021/01/07 05:14:40;;;;;;;;;;;1.60;99.90;;;;;;5094820;28;19924;-71
2021/01/07 05:17:08;;;;;;;;;;;1.70;99.90;;;;;;5094763;28;19924;-76
2021/01/07 05:19:35;;;;;;;;;;;1.80;99.90;;;;;;5095056;28;19924;-80
2021/01/07 05:22:01;;;;;;;;;;;1.80;99.90;;;;;;5088018;28;19929;-80
2021/01/07 05:24:27;;;;;;;;;;;1.80;99.90;;;;;;5074845;28;19974;-74
2021/01/07 05:26:53;;;;;;;;;;;1.70;99.90;;;;;;5074367;28;19932;-74
2021/01/07 05:29:21;;;;;;;;;;;1.70;99.90;;;;;;5074344;28;19924;-73
2021/01/07 05:31:50;;;;;;;;;;;1.70;99.90;;;;;;5073698;28;20381;-73
2021/01/07 05:34:16;;;;;;;;;;;1.70;99.90;;;;;;5074663;28;19925;-74
2021/01/07 05:36:42;;;;;;;;;;;1.60;99.90;;;;;;5074001;28;19935;-70
2021/01/07 05:39:08;;;;;;;;;;;1.60;99.90;;;;;;5073809;28;20369;-73
2021/01/07 05:41:34;;;;;;;;;;;1.60;99.90;;;;;;5073689;28;19935;-70
2021/01/07 05:44:00;;;;;;;;;;;1.60;99.90;;;;;;5074556;28;19925;-70
2021/01/07 05:46:29;;;;;;;;;;;1.60;99.90;;;;;;5094126;28;19924;-71
2021/01/07 05:48:55;;;;;;;;;;;1.60;99.90;;;;;;5094072;28;20021;-71
2021/01/07 05:51:24;;;;;;;;;;;1.60;99.90;;;;;;5093487;28;19924;-71
2021/01/07 05:53:50;;;;;;;;;;;1.50;99.90;;;;;;5093884;28;19936;-71
2021/01/07 05:56:17;;;;;;;;;;;1.60;99.90;;;;;;5093700;28;19925;-72
2021/01/07 05:58:44;;;;;;;;;;;1.60;99.90;;;;;;5082630;28;19931;-69
2021/01/07 06:01:10;;;;;;;;;;;1.50;99.90;;;;;;5080903;28;19939;-71
2021/01/07 06:03:37;;;;;;;;;;;1.50;99.90;;;;;;5093619;28;20342;-70
2021/01/07 06:06:04;;;;;;;;;;;1.60;99.90;;;;;;5092985;28;19924;-70
2021/01/07 06:08:31;;;;;;;;;;;1.50;99.90;;;;;;5073449;28;19931;-70
2021/01/07 06:10:58;;;;;;;;;;;1.50;99.90;;;;;;5072900;28;20351;-70
2021/01/07 06:13:24;;;;;;;;;;;1.50;99.90;;;;;;5092932;28;19931;-70
2021/01/07 06:15:50;;;;;;;;;;;1.60;99.90;;;;;;5093377;28;20403;-70
2021/01/07 06:18:17;;;;;;;;;;;1.60;99.90;;;;;;5093354;28;19931;-74
2021/01/07 06:20:44;;;;;;;;;;;1.60;99.90;;;;;;5092915;28;20019;-72
2021/01/07 06:23:17;;;;;;;;;;;1.50;99.90;;;;;;5093415;28;19931;-71
2021/01/07 06:25:43;;;;;;;;;;;1.50;99.90;;;;;;5093380;28;19924;-71
2021/01/07 06:28:24;;;;;;;;;;;1.50;99.90;;;;;;5093016;28;20304;-71
2021/01/07 06:30:54;;;;;;;;;;;1.50;99.90;;;;;;5093099;28;19947;-72
2021/01/07 06:33:20;;;;;;;;;;;1.50;99.90;;;;;;5093428;28;19928;-70
2021/01/07 06:35:47;;;;;;;;;;;1.50;99.90;;;;;;5093481;28;19923;-70
2021/01/07 06:38:14;;;;;;;;;;;1.50;99.90;;;;;;5093108;28;19954;-70
2021/01/07 06:40:41;;;;;;;;;;;1.50;99.90;;;;;;5091607;28;19931;-72
2021/01/07 06:43:13;;;;;;;;;;;1.50;99.90;;;;;;5072671;28;19925;-71
2021/01/07 06:45:48;;;;;;;;;;;1.50;99.90;;;;;;5072689;28;19925;-71
2021/01/07 06:48:14;;;;;;;;;;;1.50;99.90;;;;;;5072532;28;20373;-71
2021/01/07 06:50:41;;;;;;;;;;;1.40;99.90;;;;;;5083567;28;19931;-71
2021/01/07 06:53:08;;;;;;;;;;;1.40;99.90;;;;;;5092879;28;19928;-71
2021/01/07 06:55:34;;;;;;;;;;;1.40;99.90;;;;;;5092730;28;19947;-70
2021/01/07 06:58:00;;;;;;;;;;;1.40;99.90;;;;;;5092490;28;19965;-72
2021/01/07 07:00:26;;;;;;;;;;;1.50;99.90;;;;;;5092368;28;20442;-71
2021/01/07 07:02:59;;;;;;;;;;;1.50;99.90;;;;;;5092511;28;19932;-70
2021/01/07 07:05:26;;;;;;;;;;;1.50;99.90;;;;;;5092628;28;19924;-69
2021/01/07 07:08:05;;;;;;;;;;;1.50;99.90;;;;;;5092814;28;19928;-70
2021/01/07 07:10:58;;;;;;;;;;;1.50;99.90;;;;;;5092296;28;19928;-69
2021/01/07 07:13:26;;;;;;;;;;;1.50;99.90;;;;;;5092611;28;19924;-70
2021/01/07 07:15:52;;;;;;;;;;;1.60;99.90;;;;;;5091174;28;19928;-69
2021/01/07 07:18:25;;;;;;;;;;;1.60;99.90;;;;;;5072198;28;19931;-70
2021/01/07 07:20:51;;;;;;;;;;;1.60;99.90;;;;;;5071991;28;19924;-70
2021/01/07 07:23:19;;;;;;;;;;;1.50;99.90;;;;;;5072423;28;19925;-67
2021/01/07 07:25:48;;;;;;;;;;;1.50;99.90;;;;;;5072549;28;19931;-72
2021/01/07 07:28:14;;;;;;;;;;;1.50;99.90;;;;;;5089181;28;19925;-75
2021/01/07 07:30:43;;;;;;;;;;;1.50;99.90;;;;;;5089057;28;19928;-74
2021/01/07 07:33:09;;;;;;;;;;;1.50;99.90;;;;;;5072216;28;20289;-74
2021/01/07 07:35:41;;;;;;;;;;;1.70;99.90;;;;;;5071957;28;19925;-74
2021/01/07 07:38:09;;;;;;;;;;;1.60;99.90;;;;;;5072369;28;19924;-75
2021/01/07 07:40:36;;;;;;;;;;;1.50;99.90;;;;;;5072353;28;19925;-72
2021/01/07 07:43:03;;;;;;;;;;;1.50;99.90;;;;;;5082977;28;19928;-75
2021/01/07 07:45:29;;;;;;;;;;;1.60;99.90;;;;;;5076750;28;19924;-74
2021/01/07 07:47:57;;;;;;;;;;;1.50;99.90;;;;;;5073611;28;20389;-72
2021/01/07 07:50:27;;;;;;;;;;;1.50;99.90;;;;;;5086916;28;19928;-72
2021/01/07 07:53:03;;;;;;;;;;;1.50;99.90;;;;;;5075732;28;19928;-71
2021/01/07 07:55:33;;;;;;;;;;;1.50;99.90;;;;;;5072065;28;19925;-70
2021/01/07 07:58:07;;;;;;;;;;;1.50;99.90;;;;;;5075765;28;19925;-71
2021/01/07 08:00:33;;;;;;;;;;;1.60;99.90;;;;;;5071503;28;19930;-70
2021/01/07 08:03:00;;;;;;;;;;;1.50;99.90;;;;;;5072021;28;19924;-68
2021/01/07 08:05:26;;;;;;;;;;;1.50;99.90;;;;;;5072074;28;19959;-74
2021/01/07 08:07:52;;;;;;;;;;;1.60;99.90;;;;;;5072133;28;20003;-71
2021/01/07 08:10:18;;;;;;;;;;;1.60;99.90;;;;;;5071722;28;19924;-70
2021/01/07 08:12:45;;;;;;;;;;;1.60;99.90;;;;;;5080366;28;19924;-71
2021/01/07 08:15:11;;;;;;;;;;;1.60;99.90;;;;;;5071644;28;19925;-71
2021/01/07 08:17:37;;;;;;;;;;;1.60;99.90;;;;;;5083368;28;19924;-71
2021/01/07 08:20:07;;;;;;;;;;;1.70;99.90;;;;;;5091482;28;19928;-69
2021/01/07 08:22:33;;;;;;;;;;;1.70;99.90;;;;;;5074052;28;19974;-75
2021/01/07 08:24:59;;;;;;;;;;;1.70;99.90;;;;;;5078735;28;19925;-69
2021/01/07 08:27:27;;;;;;;;;;;1.70;99.90;;;;;;5083846;28;19947;-69
2021/01/07 08:29:55;;;;;;;;;;;1.60;99.90;;;;;;5095249;28;19924;-74
2021/01/07 08:32:22;;;;;;;;;;;1.70;99.90;;;;;;5095427;28;19924;-70
2021/01/07 08:34:49;;;;;;;;;;;1.70;99.90;;;;;;5095423;28;19924;-72
2021/01/07 08:37:17;;;;;;;;;;;1.70;99.90;;;;;;5095398;28;19989;-73
2021/01/07 08:39:43;;;;;;;;;;;1.70;99.90;;;;;;5087528;28;19937;-73
2021/01/07 08:42:10;;;;;;;;;;;1.70;99.90;;;;;;5075288;28;19932;-72
2021/01/07 08:44:36;;;;;;;;;;;1.70;99.90;;;;;;5075131;28;20480;-73
2021/01/07 08:47:03;;;;;;;;;;;1.80;99.90;;;;;;5075248;28;19950;-73
2021/01/07 08:49:29;;;;;;;;;;;1.70;99.90;;;;;;5075104;28;19925;-72
2021/01/07 08:51:58;;;;;;;;;;;1.70;99.90;;;;;;5074920;28;19925;-74
2021/01/07 08:54:25;;;;;;;;;;;1.80;99.90;;;;;;5074535;28;20305;-73
2021/01/07 08:56:52;;;;;;;;;;;1.80;99.90;;;;;;5074914;28;20297;-72
2021/01/07 08:59:19;;;;;;;;;;;1.80;99.90;;;;;;5075015;28;19928;-70
2021/01/07 09:01:45;;;;;;;;;;;1.80;99.90;;;;;;5074815;28;19928;-70
2021/01/07 09:04:24;;;;;;;;;;;1.80;99.90;;;;;;5074681;28;19924;-70
2021/01/07 09:06:57;;;;;;;;;;;1.80;99.90;;;;;;5076907;28;19977;-73
2021/01/07 09:09:23;;;;;;;;;;;1.90;99.90;;;;;;5094443;28;19982;-71
2021/01/07 09:11:50;;;;;;;;;;;1.90;99.90;;;;;;5093904;28;19931;-71
2021/01/07 09:14:16;;;;;;;;;;;1.90;99.90;;;;;;5094781;28;19924;-71
2021/01/07 09:16:57;;;;;;;;;;;1.90;99.90;;;;;;5090245;28;20392;-71
2021/01/07 09:19:23;;;;;;;;;;;1.90;99.90;;;;;;5074554;28;19924;-71
2021/01/07 09:21:58;;;;;;;;;;;1.90;99.90;;;;;;5075699;28;19924;-70
2021/01/07 09:24:24;;;;;;;;;;;1.90;99.90;;;;;;5094587;28;20372;-70
2021/01/07 09:26:51;;;;;;;;;;;1.90;99.90;;;;;;5091772;28;19998;-68
2021/01/07 09:29:17;;;;;;;;;;;1.90;99.90;;;;;;5075419;28;19924;-68
2021/01/07 09:31:43;;;;;;;;;;;2.00;99.90;;;;;;5073793;28;20341;-67
2021/01/07 09:34:09;;;;;;;;;;;1.40;99.90;;;;;;5076793;28;19931;-68
2021/01/07 09:36:36;;;;;;;;;;;2.00;99.90;;;;;;5093975;28;20289;-69
2021/01/07 09:39:02;;;;;;;;;;;2.00;99.90;;;;;;5093243;28;20423;-70
2021/01/07 09:41:28;;;;;;;;;;;2.00;99.90;;;;;;5093251;28;19924;-71
2021/01/07 09:43:55;;;;;;;;;;;2.00;99.90;;;;;;5094196;28;19924;-68
2021/01/07 09:46:21;;;;;;;;;;;2.00;99.90;;;;;;5092265;28;19931;-66
2021/01/07 09:48:47;;;;;;;;;;;2.00;99.90;;;;;;5094020;28;19924;-68
2021/01/07 09:51:13;;;;;;;;;;;2.00;99.90;;;;;;5093344;28;20381;-68
2021/01/07 09:53:39;;;;;;;;;;;2.10;99.90;;;;;;5093636;28;19931;-70
2021/01/07 09:56:05;;;;;;;;;;;2.10;99.90;;;;;;5093983;28;19924;-71
2021/01/07 09:58:31;;;;;;;;;;;2.20;99.90;;;;;;5093340;28;19924;-71
2021/01/07 10:00:57;;;;;;;;;;;2.10;99.90;;;;;;5093201;28;19924;-69
2021/01/07 10:03:23;;;;;;;;;;;2.00;99.90;;;;;;5093581;28;19924;-70
2021/01/07 10:05:49;;;;;;;;;;;2.10;99.90;;;;;;5093671;28;19951;-70
2021/01/07 10:08:15;;;;;;;;;;;2.20;99.90;;;;;;5093331;28;19924;-67
2021/01/07 10:10:41;;;;;;;;;;;2.20;99.90;;;;;;5075387;28;20331;-71
2021/01/07 10:13:07;;;;;;;;;;;2.20;99.90;;;;;;5077810;28;20269;-65
2021/01/07 10:15:33;;;;;;;;;;;2.20;99.90;;;;;;5094887;28;19924;-68
2021/01/07 10:18:00;;;;;;;;;;;2.10;99.90;;;;;;5094607;28;19924;-67
2021/01/07 10:20:26;;;;;;;;;;;2.20;99.90;;;;;;5093160;28;19931;-69
2021/01/07 10:22:54;;;;;;;;;;;2.20;99.90;;;;;;5093089;28;19928;-69
2021/01/07 10:25:20;;;;;;;;;;;2.30;99.90;;;;;;5093007;28;19947;-66
2021/01/07 10:27:46;;;;;;;;;;;2.20;99.90;;;;;;5093436;28;20389;-70
2021/01/07 10:30:13;;;;;;;;;;;2.20;99.90;;;;;;5093315;28;19928;-68
2021/01/07 10:32:39;;;;;;;;;;;2.20;99.90;;;;;;5080340;28;19929;-65
2021/01/07 10:35:06;;;;;;;;;;;2.30;99.90;;;;;;5092467;28;19985;-69
2021/01/07 10:37:33;;;;;;;;;;;2.40;99.90;;;;;;5091379;28;19928;-69
2021/01/07 10:40:02;;;;;;;;;;;2.30;99.90;;;;;;5092696;28;20023;-69
2021/01/07 10:42:28;;;;;;;;;;;2.40;99.90;;;;;;5076748;28;19932;-68
2021/01/07 10:44:54;;;;;;;;;;;2.40;99.90;;;;;;5092861;28;19989;-69
2021/01/07 10:47:23;;;;;;;;;;;2.40;99.90;;;;;;5091735;28;20380;-71
2021/01/07 10:49:49;;;;;;;;;;;2.40;99.90;;;;;;5072530;28;20343;-70
2021/01/07 10:52:33;;;;;;;;;;;2.40;99.90;;;;;;5071651;28;19970;-67
2021/01/07 10:55:07;;;;;;;;;;;2.40;99.90;;;;;;5072450;28;20399;-66
2021/01/07 10:57:40;;;;;;;;;;;2.50;99.90;;;;;;5077302;28;19925;-67
2021/01/07 11:00:07;;;;;;;;;;;2.50;99.90;;;;;;5072421;28;19925;-67
2021/01/07 11:02:50;;;;;;;;;;;2.50;99.90;;;;;;5072664;28;19929;-67
2021/01/07 11:05:17;;;;;;;;;;;2.40;99.90;;;;;;5072446;28;20369;-67
2021/01/07 11:07:46;;;;;;;;;;;2.30;99.90;;;;;;5072370;28;20294;-67
2021/01/07 11:10:14;;;;;;;;;;;2.30;99.90;;;;;;5071987;28;19932;-67
2021/01/07 11:12:41;;;;;;;;;;;2.40;99.90;;;;;;5072458;28;19924;-67
2021/01/07 11:15:11;;;;;;;;;;;2.30;99.90;;;;;;5072635;28;19924;-67
2021/01/07 11:17:40;;;;;;;;;;;2.30;99.90;;;;;;5072515;28;19932;-67
2021/01/07 11:20:07;;;;;;;;;;;2.30;99.90;;;;;;5071865;28;19925;-67
2021/01/07 11:22:34;;;;;;;;;;;2.30;99.90;;;;;;5071701;28;19936;-67
2021/01/07 11:25:02;;;;;;;;;;;2.30;99.90;;;;;;5072309;28;19932;-67
2021/01/07 11:27:30;;;;;;;;;;;2.40;99.90;;;;;;5072401;28;19924;-67
2021/01/07 11:29:56;;;;;;;;;;;2.40;99.90;;;;;;5072426;28;19924;-67
2021/01/07 11:32:22;;;;;;;;;;;2.40;99.90;;;;;;5072191;28;19943;-67
2021/01/07 11:34:49;;;;;;;;;;;2.40;99.90;;;;;;5072520;28;19925;-67
2021/01/07 11:37:17;;;;;;;;;;;2.40;99.90;;;;;;5072013;28;19924;-67
2021/01/07 11:40:02;;;;;;;;;;;2.40;99.90;;;;;;5072201;28;20003;-67
2021/01/07 11:42:33;;;;;;;;;;;2.40;99.90;;;;;;5072164;28;19935;-67
2021/01/07 11:45:02;;;;;;;;;;;2.40;99.90;;;;;;5072059;28;20389;-67
2021/01/07 11:47:30;;;;;;;;;;;2.40;99.90;;;;;;5072071;28;19962;-67
2021/01/07 11:49:58;;;;;;;;;;;2.40;99.90;;;;;;5074554;28;20373;-67
2021/01/07 11:52:24;;;;;;;;;;;2.30;99.90;;;;;;5077570;28;19924;-68
2021/01/07 11:54:52;;;;;;;;;;;2.30;99.90;;;;;;5092175;28;19928;-66
2021/01/07 11:57:19;;;;;;;;;;;2.40;99.90;;;;;;5092140;28;19925;-66
2021/01/07 11:59:46;;;;;;;;;;;2.40;99.90;;;;;;5091849;28;20045;-69
2021/01/07 12:02:12;;;;;;;;;;;2.50;99.90;;;;;;5092281;28;20138;-70
2021/01/07 12:04:38;;;;;;;;;;;2.40;99.90;;;;;;5095902;28;19933;-69
2021/01/07 12:07:09;;;;;;;;;;;2.30;99.90;;;;;;5091799;28;19928;-70
2021/01/07 12:09:38;;;;;;;;;;;2.30;99.90;;;;;;5075713;28;19925;-71
2021/01/07 12:12:06;;;;;;;;;;;2.30;99.90;;;;;;5092377;28;19927;-68
2021/01/07 12:14:38;;;;;;;;;;;2.30;99.90;;;;;;5095773;28;20396;-70
2021/01/07 12:17:06;;;;;;;;;;;2.30;99.90;;;;;;5089703;28;19933;-70
2021/01/07 12:19:32;;;;;;;;;;;2.20;99.90;;;;;;5075531;28;20321;-71
2021/01/07 12:22:00;;;;;;;;;;;2.30;99.90;;;;;;5075150;28;19925;-69
2021/01/07 12:24:27;;;;;;;;;;;2.30;99.90;;;;;;5075514;28;19924;-74
2021/01/07 12:26:53;;;;;;;;;;;2.30;99.90;;;;;;5089603;28;19928;-69
2021/01/07 12:29:20;;;;;;;;;;;2.10;99.90;;;;;;5095020;28;20392;-71
2021/01/07 12:31:49;;;;;;;;;;;2.10;99.90;;;;;;5095492;28;19931;-71
2021/01/07 12:34:24;;;;;;;;;;;2.10;99.90;;;;;;5095954;28;19924;-77
2021/01/07 12:37:05;;;;;;;;;;;2.10;99.90;;;;;;5095665;28;19924;-72
2021/01/07 12:39:34;;;;;;;;;;;2.20;99.90;;;;;;5092818;28;19924;-71
2021/01/07 12:42:01;;;;;;;;;;;2.10;99.90;;;;;;5094568;28;19951;-68
2021/01/07 12:44:31;;;;;;;;;;;2.10;99.90;;;;;;5092988;28;20032;-70
2021/01/07 12:46:57;;;;;;;;;;;2.10;99.90;;;;;;5090728;28;20001;-71
2021/01/07 12:49:27;;;;;;;;;;;2.10;99.90;;;;;;5095088;28;20376;-71
2021/01/07 12:51:53;;;;;;;;;;;2.00;99.90;;;;;;5094868;28;19950;-70
2021/01/07 12:54:19;;;;;;;;;;;2.00;99.90;;;;;;5094917;28;20401;-69
2021/01/07 12:56:52;;;;;;;;;;;2.00;99.90;;;;;;5095276;28;19924;-67
2021/01/07 12:59:22;;;;;;;;;;;2.00;99.90;;;;;;5090990;28;19925;-70
2021/01/07 13:01:52;;;;;;;;;;;2.00;99.90;;;;;;5074718;28;19931;-70
2021/01/07 13:04:24;;;;;;;;;;;2.00;99.90;;;;;;5074654;28;20410;-70
2021/01/07 13:06:54;;;;;;;;;;;2.00;99.90;;;;;;5075008;28;20388;-70
2021/01/07 13:09:22;;;;;;;;;;;1.90;99.90;;;;;;5074746;28;19925;-68
2021/01/07 13:11:48;;;;;;;;;;;1.90;99.90;;;;;;5074032;28;20313;-67
2021/01/07 13:14:15;;;;;;;;;;;1.90;99.90;;;;;;5073162;28;20377;-70
2021/01/07 13:16:41;;;;;;;;;;;1.80;99.90;;;;;;5078493;28;19931;-75
2021/01/07 13:19:07;;;;;;;;;;;1.90;99.90;;;;;;5080603;28;19985;-72
2021/01/07 13:21:33;;;;;;;;;;;1.90;99.90;;;;;;5091400;28;19928;-70
2021/01/07 13:24:03;;;;;;;;;;;1.90;99.90;;;;;;5094645;28;19931;-71
2021/01/07 13:26:29;;;;;;;;;;;1.80;99.90;;;;;;5094399;28;19924;-69
2021/01/07 13:28:56;;;;;;;;;;;1.80;99.90;;;;;;5074516;28;20298;-71
2021/01/07 13:31:22;;;;;;;;;;;1.80;99.90;;;;;;5073632;28;19924;-72
2021/01/07 13:33:48;;;;;;;;;;;1.80;99.90;;;;;;5074060;28;19925;-72
2021/01/07 13:36:15;;;;;;;;;;;1.80;99.90;;;;;;5073738;28;19924;-70
2021/01/07 13:38:41;;;;;;;;;;;1.80;99.90;;;;;;5073821;28;19924;-71
2021/01/07 13:41:08;;;;;;;;;;;1.70;99.90;;;;;;5089861;28;19932;-70
2021/01/07 13:43:35;;;;;;;;;;;1.80;99.90;;;;;;5094086;28;19931;-71
2021/01/07 13:46:02;;;;;;;;;;;1.80;99.90;;;;;;5094052;28;19924;-71
2021/01/07 13:48:29;;;;;;;;;;;1.90;99.90;;;;;;5093519;28;19924;-74
2021/01/07 13:50:56;;;;;;;;;;;1.90;99.90;;;;;;5093491;28;19932;-78
2021/01/07 13:53:22;;;;;;;;;;;1.90;99.90;;;;;;5092402;28;19924;-73
2021/01/07 13:55:50;;;;;;;;;;;1.80;99.90;;;;;;5093807;28;20009;-73
2021/01/07 13:58:18;;;;;;;;;;;1.80;99.90;;;;;;5093889;28;19931;-68
2021/01/07 14:00:44;;;;;;;;;;;1.80;99.90;;;;;;5092926;28;19931;-68
2021/01/07 14:03:10;;;;;;;;;;;1.80;99.90;;;;;;5093398;28;19924;-68
2021/01/07 14:05:39;;;;;;;;;;;1.80;99.90;;;;;;5093392;28;19977;-68
2021/01/07 14:08:09;;;;;;;;;;;1.80;99.90;;;;;;5082177;28;20373;-68
2021/01/07 14:10:36;;;;;;;;;;;1.80;99.90;;;;;;5073189;28;19931;-69
2021/01/07 14:13:02;;;;;;;;;;;1.80;99.90;;;;;;5073279;28;19924;-69
2021/01/07 14:15:29;;;;;;;;;;;1.80;99.90;;;;;;5073129;28;19924;-71
2021/01/07 14:17:55;;;;;;;;;;;1.90;99.90;;;;;;5073328;28;19932;-68
2021/01/07 14:20:21;;;;;;;;;;;1.90;99.90;;;;;;5072917;28;19925;-69
2021/01/07 14:22:48;;;;;;;;;;;1.90;99.90;;;;;;5073258;28;19924;-69
2021/01/07 14:25:15;;;;;;;;;;;1.90;99.90;;;;;;5072869;28;20385;-69
2021/01/07 14:27:46;;;;;;;;;;;1.90;99.90;;;;;;5073049;28;19932;-69
2021/01/07 14:30:13;;;;;;;;;;;1.90;99.90;;;;;;5072590;28;19974;-69
2021/01/07 14:32:40;;;;;;;;;;;1.90;99.90;;;;;;5072946;28;20338;-69